createdAt,value
2017-08-30T00:00:35.880Z,67.50
2017-08-30T00:03:03.544Z,69.70
2017-08-30T00:05:31.194Z,70.30
2017-08-30T00:07:59.455Z,70.90
2017-08-30T00:10:27.272Z,71.40
2017-08-30T00:12:54.921Z,70.70
2017-08-30T00:15:22.542Z,71.60
2017-08-30T00:17:50.202Z,72.20
2017-08-30T00:20:18.657Z,72.50
2017-08-30T00:22:46.288Z,71.70
2017-08-30T00:25:25.950Z,71.90
2017-08-30T00:27:53.584Z,71.80
2017-08-30T00:30:21.221Z,72.00
2017-08-30T00:32:48.895Z,71.10
2017-08-30T00:35:17.132Z,71.60
2017-08-30T00:37:44.756Z,72.60
2017-08-30T00:40:13.292Z,71.80
2017-08-30T00:42:40.919Z,71.90
2017-08-30T00:45:08.551Z,70.60
2017-08-30T00:47:36.285Z,69.60
2017-08-30T00:50:03.921Z,68.80
2017-08-30T00:52:31.562Z,69.30
2017-08-30T00:54:59.220Z,69.30
2017-08-30T00:57:26.879Z,69.60
2017-08-30T00:59:54.503Z,68.60
2017-08-30T01:02:22.169Z,68.10
2017-08-30T01:04:49.793Z,68.70
2017-08-30T01:07:17.631Z,67.90
2017-08-30T01:09:45.299Z,68.30
2017-08-30T01:12:12.937Z,68.30
2017-08-30T01:14:40.554Z,68.70
2017-08-30T01:17:08.221Z,69.30
2017-08-30T01:19:35.919Z,69.40
2017-08-30T01:22:03.544Z,70.60
2017-08-30T01:24:31.213Z,69.40
2017-08-30T01:26:58.846Z,69.30
2017-08-30T01:29:26.633Z,70.80
2017-08-30T01:31:54.300Z,69.00
2017-08-30T01:34:21.934Z,69.60
2017-08-30T01:36:49.567Z,68.70
2017-08-30T01:39:17.330Z,67.70
2017-08-30T01:41:44.946Z,68.00
2017-08-30T01:44:12.574Z,68.20
2017-08-30T01:46:40.233Z,68.90
2017-08-30T01:49:07.903Z,70.30
2017-08-30T01:51:35.519Z,71.20
2017-08-30T01:54:03.181Z,71.20
2017-08-30T01:56:30.812Z,71.60
2017-08-30T01:58:58.449Z,71.60
2017-08-30T02:01:26.832Z,71.20
2017-08-30T02:03:54.463Z,71.90
2017-08-30T02:06:22.099Z,73.10
2017-08-30T02:08:49.765Z,74.20
2017-08-30T02:11:17.524Z,74.20
2017-08-30T02:13:45.160Z,75.10
2017-08-30T02:16:12.816Z,75.30
2017-08-30T02:18:40.444Z,74.70
2017-08-30T02:21:08.066Z,75.90
2017-08-30T02:23:35.778Z,74.60
2017-08-30T02:26:03.408Z,75.50
2017-08-30T02:28:31.044Z,75.50
2017-08-30T02:30:58.715Z,76.40
2017-08-30T02:33:27.262Z,75.90
2017-08-30T02:35:54.904Z,74.70
2017-08-30T02:38:22.558Z,74.90
2017-08-30T02:40:50.197Z,76.50
2017-08-30T02:43:17.837Z,76.40
2017-08-30T02:45:45.510Z,77.40
2017-08-30T02:48:13.229Z,77.60
2017-08-30T02:50:40.864Z,77.80
2017-08-30T02:53:08.532Z,77.70
2017-08-30T02:55:36.215Z,78.40
2017-08-30T02:58:03.851Z,79.30
2017-08-30T03:00:32.432Z,79.40
2017-08-30T03:03:00.070Z,79.30
2017-08-30T03:05:27.692Z,79.30
2017-08-30T03:07:55.395Z,80.10
2017-08-30T03:10:23.019Z,79.10
2017-08-30T03:12:50.639Z,79.20
2017-08-30T03:15:18.301Z,79.10
2017-08-30T03:17:46.057Z,78.70
2017-08-30T03:20:13.680Z,78.50
2017-08-30T03:22:41.346Z,78.80
2017-08-30T03:25:08.981Z,78.70
2017-08-30T03:27:36.726Z,79.00
2017-08-30T03:30:04.390Z,79.10
2017-08-30T03:32:32.026Z,79.20
2017-08-30T03:34:59.666Z,79.20
2017-08-30T03:37:27.571Z,79.90
2017-08-30T03:39:55.245Z,79.70
2017-08-30T03:42:22.880Z,79.90
2017-08-30T03:44:50.539Z,79.60
2017-08-30T03:47:18.187Z,79.40
2017-08-30T03:49:45.811Z,79.60
2017-08-30T03:52:13.485Z,79.00
2017-08-30T03:54:41.136Z,79.10
2017-08-30T03:57:08.782Z,79.00
2017-08-30T03:59:36.613Z,79.70
2017-08-30T04:02:04.254Z,79.30
2017-08-30T04:04:31.885Z,79.00
2017-08-30T04:06:59.547Z,79.20
2017-08-30T04:09:28.034Z,79.60
2017-08-30T04:11:55.847Z,79.90
2017-08-30T04:14:23.508Z,79.40
2017-08-30T04:16:51.152Z,79.70
2017-08-30T04:19:18.789Z,79.80
2017-08-30T04:21:46.609Z,80.10
2017-08-30T04:24:14.237Z,79.80
2017-08-30T04:26:41.876Z,71.30
2017-08-30T04:29:09.527Z,78.00
2017-08-30T04:31:37.256Z,78.90
2017-08-30T04:34:04.898Z,79.40
2017-08-30T04:36:32.562Z,79.60
2017-08-30T04:39:00.184Z,75.00
2017-08-30T04:41:27.800Z,77.10
2017-08-30T04:43:55.463Z,78.20
2017-08-30T04:46:23.285Z,78.10
2017-08-30T04:48:50.925Z,79.20
2017-08-30T04:51:18.593Z,78.70
2017-08-30T04:53:46.252Z,79.00
2017-08-30T04:56:13.891Z,78.30
2017-08-30T04:58:41.565Z,77.90
2017-08-30T05:01:09.201Z,77.70
2017-08-30T05:03:36.832Z,77.80
2017-08-30T05:06:04.502Z,77.10
2017-08-30T05:08:32.133Z,74.10
2017-08-30T05:10:59.777Z,75.20
2017-08-30T05:13:27.482Z,76.70
2017-08-30T05:15:55.145Z,76.60
2017-08-30T05:18:22.783Z,76.40
2017-08-30T05:20:50.457Z,76.80
2017-08-30T05:23:18.071Z,75.50
2017-08-30T05:25:45.726Z,74.10
2017-08-30T05:28:13.410Z,73.40
2017-08-30T05:30:41.051Z,72.10
2017-08-30T05:33:08.692Z,70.60
2017-08-30T05:35:36.419Z,68.60
2017-08-30T05:38:04.053Z,63.50
2017-08-30T05:40:31.676Z,66.40
2017-08-30T05:42:59.318Z,66.60
2017-08-30T05:45:27.032Z,68.20
2017-08-30T05:47:55.609Z,65.60
2017-08-30T05:50:24.411Z,57.80
2017-08-30T05:52:53.012Z,62.10
2017-08-30T05:55:20.984Z,60.30
2017-08-30T05:57:49.696Z,60.80
2017-08-30T06:00:17.911Z,61.50
2017-08-30T06:02:45.749Z,60.10
2017-08-30T06:05:13.392Z,59.80
2017-08-30T06:07:41.237Z,50.40
2017-08-30T06:10:08.865Z,48.30
2017-08-30T06:12:36.530Z,44.90
2017-08-30T06:15:04.154Z,52.50
2017-08-30T06:17:31.769Z,46.60
2017-08-30T06:19:59.468Z,47.10
2017-08-30T06:22:27.071Z,38.40
2017-08-30T06:24:54.697Z,38.10
2017-08-30T06:27:22.340Z,35.70
2017-08-30T06:29:49.957Z,35.50
2017-08-30T06:32:17.582Z,33.70
2017-08-30T06:34:45.242Z,35.10
2017-08-30T06:37:12.862Z,35.50
2017-08-30T06:39:40.476Z,32.80
2017-08-30T06:42:08.136Z,32.20
2017-08-30T06:44:35.759Z,32.80
2017-08-30T06:47:03.377Z,28.60
2017-08-30T06:49:31.027Z,27.60
2017-08-30T06:51:58.628Z,26.40
2017-08-30T06:54:26.287Z,23.20
2017-08-30T06:56:53.916Z,21.60
2017-08-30T06:59:21.519Z,23.00
2017-08-30T07:01:49.126Z,18.40
2017-08-30T07:04:16.770Z,17.90
2017-08-30T07:06:44.389Z,17.30
2017-08-30T07:09:11.991Z,18.10
2017-08-30T07:11:39.638Z,15.50
2017-08-30T07:14:07.329Z,15.30
2017-08-30T07:16:34.931Z,15.50
2017-08-30T07:19:02.569Z,15.40
2017-08-30T07:21:30.187Z,14.00
2017-08-30T07:23:57.794Z,14.50
2017-08-30T07:26:25.429Z,14.30
2017-08-30T07:28:53.062Z,14.10
2017-08-30T07:31:20.674Z,15.70
2017-08-30T07:33:48.321Z,15.30
2017-08-30T07:36:16.008Z,14.60
2017-08-30T07:38:43.632Z,14.60
2017-08-30T07:41:11.268Z,13.60
2017-08-30T07:43:38.879Z,14.90
2017-08-30T07:46:06.534Z,13.70
2017-08-30T07:48:34.167Z,14.20
2017-08-30T07:51:01.785Z,14.80
2017-08-30T07:53:29.417Z,15.30
2017-08-30T07:55:57.060Z,15.00
2017-08-30T07:58:24.674Z,14.30
2017-08-30T08:00:52.268Z,13.70
2017-08-30T08:03:19.922Z,14.30
2017-08-30T08:05:47.568Z,13.50
2017-08-30T08:08:15.176Z,13.80
2017-08-30T08:10:42.811Z,14.80
2017-08-30T08:13:10.430Z,13.60
2017-08-30T08:15:38.030Z,12.90
2017-08-30T08:18:05.674Z,13.70
2017-08-30T08:20:33.280Z,12.60
2017-08-30T08:23:00.897Z,12.30
2017-08-30T08:25:28.550Z,12.70
2017-08-30T08:27:56.191Z,12.40
2017-08-30T08:30:23.796Z,12.70
2017-08-30T08:32:51.432Z,12.80
2017-08-30T08:35:19.037Z,13.40
2017-08-30T08:37:46.674Z,12.10
2017-08-30T08:40:14.312Z,12.10
2017-08-30T08:42:41.915Z,12.70
2017-08-30T08:45:09.511Z,12.50
2017-08-30T08:47:37.303Z,12.60
2017-08-30T08:50:04.909Z,13.00
2017-08-30T08:52:32.524Z,11.80
2017-08-30T08:55:00.168Z,12.30
2017-08-30T08:57:27.780Z,11.20
2017-08-30T08:59:55.389Z,10.60
2017-08-30T09:02:23.067Z,10.90
2017-08-30T09:04:50.699Z,11.80
2017-08-30T09:07:18.305Z,12.80
2017-08-30T09:09:46.127Z,12.70
2017-08-30T09:12:13.726Z,12.30
2017-08-30T09:14:41.346Z,11.90
2017-08-30T09:17:08.980Z,12.00
2017-08-30T09:19:36.677Z,12.30
2017-08-30T09:22:04.279Z,10.50
2017-08-30T09:24:31.919Z,10.90
2017-08-30T09:26:59.537Z,10.70
2017-08-30T09:29:27.239Z,9.70
2017-08-30T09:31:54.891Z,10.30
2017-08-30T09:34:22.518Z,10.90
2017-08-30T09:36:50.125Z,10.60
2017-08-30T09:39:17.770Z,10.40
2017-08-30T09:41:45.394Z,9.80
2017-08-30T09:44:13.053Z,9.10
2017-08-30T09:46:40.704Z,8.60
2017-08-30T09:49:08.312Z,8.00
2017-08-30T09:51:35.926Z,9.10
2017-08-30T09:54:03.568Z,9.10
2017-08-30T09:56:31.183Z,7.40
2017-08-30T09:58:58.776Z,9.00
2017-08-30T10:01:26.560Z,9.60
2017-08-30T10:03:54.170Z,7.90
2017-08-30T10:06:21.763Z,8.50
2017-08-30T10:08:49.387Z,9.20
2017-08-30T10:11:17.128Z,10.60
2017-08-30T10:13:44.728Z,10.60
2017-08-30T10:16:12.372Z,10.10
2017-08-30T10:18:40.006Z,10.90
2017-08-30T10:21:07.637Z,9.90
2017-08-30T10:23:35.296Z,11.80
2017-08-30T10:26:02.908Z,10.50
2017-08-30T10:28:30.528Z,10.30
2017-08-30T10:30:58.195Z,11.10
2017-08-30T10:33:25.799Z,11.30
2017-08-30T10:35:53.400Z,10.80
2017-08-30T10:38:21.035Z,11.30
2017-08-30T10:40:48.659Z,10.50
2017-08-30T10:43:16.575Z,10.70
2017-08-30T10:45:44.215Z,10.40
2017-08-30T10:48:11.826Z,9.70
2017-08-30T10:50:39.433Z,10.90
2017-08-30T10:53:07.287Z,10.90
2017-08-30T10:55:34.899Z,11.60
2017-08-30T10:58:02.513Z,11.60
2017-08-30T11:00:30.156Z,11.30
2017-08-30T11:02:57.803Z,11.20
2017-08-30T11:05:25.427Z,11.00
2017-08-30T11:07:53.081Z,11.10
2017-08-30T11:10:20.701Z,10.30
2017-08-30T11:12:48.311Z,10.90
2017-08-30T11:15:16.104Z,10.70
2017-08-30T11:17:43.714Z,11.60
2017-08-30T11:20:11.348Z,11.60
2017-08-30T11:22:38.998Z,11.80
2017-08-30T11:25:06.672Z,12.30
2017-08-30T11:27:34.285Z,11.80
2017-08-30T11:30:01.929Z,11.80
2017-08-30T11:32:29.544Z,12.90
2017-08-30T11:34:57.265Z,12.70
2017-08-30T11:37:24.901Z,13.20
2017-08-30T11:39:52.504Z,12.90
2017-08-30T11:42:20.109Z,12.40
2017-08-30T11:44:47.799Z,12.50
2017-08-30T11:47:15.419Z,12.70
2017-08-30T11:49:43.094Z,13.90
2017-08-30T11:52:10.735Z,13.50
2017-08-30T11:54:38.338Z,13.60
2017-08-30T11:57:06.064Z,13.90
2017-08-30T11:59:33.704Z,13.00
2017-08-30T12:02:01.334Z,12.60
2017-08-30T12:04:28.937Z,13.00
2017-08-30T12:06:56.700Z,13.30
2017-08-30T12:09:24.304Z,13.20
2017-08-30T12:11:51.926Z,13.30
2017-08-30T12:14:19.558Z,13.60
2017-08-30T12:16:47.206Z,13.90
2017-08-30T12:19:14.822Z,13.50
2017-08-30T12:21:42.489Z,13.90
2017-08-30T12:24:10.109Z,13.70
2017-08-30T12:26:37.716Z,13.20
2017-08-30T12:29:05.715Z,13.20
2017-08-30T12:31:33.312Z,13.50
2017-08-30T12:34:00.926Z,13.90
2017-08-30T12:36:28.565Z,13.10
2017-08-30T12:41:55.216Z,13.30
2017-08-30T12:44:22.816Z,13.70
2017-08-30T12:46:50.438Z,13.20
2017-08-30T12:49:18.100Z,13.40
2017-08-30T12:51:45.726Z,14.00
2017-08-30T12:54:13.345Z,13.80
2017-08-30T12:56:40.994Z,13.60
2017-08-30T12:59:08.615Z,14.60
2017-08-30T13:01:36.258Z,14.00
2017-08-30T13:04:03.905Z,14.30
2017-08-30T13:06:31.535Z,14.00
2017-08-30T13:08:59.156Z,14.50
2017-08-30T13:11:26.806Z,13.60
2017-08-30T13:13:54.429Z,14.00
2017-08-30T13:16:22.041Z,13.70
2017-08-30T13:18:49.689Z,12.90
2017-08-30T13:21:17.363Z,13.20
2017-08-30T13:23:44.984Z,12.60
2017-08-30T13:26:12.633Z,12.20
2017-08-30T13:28:40.248Z,11.80
2017-08-30T13:31:07.856Z,12.10
2017-08-30T13:33:35.767Z,12.60
2017-08-30T13:36:03.385Z,12.10
2017-08-30T13:38:31.019Z,11.10
2017-08-30T13:40:58.681Z,11.30
2017-08-30T13:43:26.338Z,11.70
2017-08-30T13:45:53.946Z,11.30
2017-08-30T13:48:21.583Z,10.50
2017-08-30T13:50:49.227Z,12.30
2017-08-30T13:53:16.828Z,11.50
2017-08-30T13:55:44.477Z,11.80
2017-08-30T13:58:12.096Z,12.00
2017-08-30T14:00:39.705Z,12.00
2017-08-30T14:03:07.504Z,12.30
2017-08-30T14:05:35.137Z,12.70
2017-08-30T14:08:02.752Z,11.60
2017-08-30T14:10:30.416Z,12.20
2017-08-30T14:12:58.026Z,12.30
2017-08-30T14:15:25.654Z,13.00
2017-08-30T14:17:53.320Z,12.60
2017-08-30T14:20:20.946Z,12.70
2017-08-30T14:22:48.554Z,13.20
2017-08-30T14:25:16.206Z,13.90
2017-08-30T14:27:43.816Z,13.60
2017-08-30T14:30:11.424Z,13.70
2017-08-30T14:32:39.068Z,14.40
2017-08-30T14:35:06.683Z,14.10
2017-08-30T14:37:34.316Z,14.10
2017-08-30T14:40:01.955Z,14.20
2017-08-30T14:42:29.604Z,15.00
2017-08-30T14:44:57.287Z,15.20
2017-08-30T14:47:24.925Z,14.90
2017-08-30T14:49:52.546Z,15.00
2017-08-30T14:52:20.150Z,14.80
2017-08-30T14:54:47.853Z,15.00
2017-08-30T14:57:15.468Z,15.10
2017-08-30T14:59:43.206Z,15.00
2017-08-30T15:02:10.856Z,15.00
2017-08-30T15:04:38.467Z,15.20
2017-08-30T15:07:06.192Z,15.10
2017-08-30T15:09:33.837Z,14.70
2017-08-30T15:12:01.449Z,14.50
2017-08-30T15:14:29.060Z,15.00
2017-08-30T15:16:56.730Z,14.40
2017-08-30T15:19:24.343Z,14.30
2017-08-30T15:21:51.980Z,14.30
2017-08-30T15:24:19.689Z,14.60
2017-08-30T15:26:47.298Z,14.30
2017-08-30T15:29:14.898Z,14.60
2017-08-30T15:31:42.537Z,14.50
2017-08-30T15:34:10.151Z,15.00
2017-08-30T15:36:37.767Z,15.10
2017-08-30T15:39:05.604Z,14.50
2017-08-30T15:41:33.324Z,14.40
2017-08-30T15:44:00.933Z,14.40
2017-08-30T15:46:28.577Z,14.90
2017-08-30T15:48:56.217Z,15.10
2017-08-30T15:51:23.843Z,14.80
2017-08-30T15:53:51.492Z,14.50
2017-08-30T15:56:19.209Z,15.00
2017-08-30T15:58:46.828Z,15.10
2017-08-30T16:01:14.474Z,15.20
2017-08-30T16:03:42.079Z,15.30
2017-08-30T16:06:09.780Z,15.30
2017-08-30T16:08:37.500Z,15.10
2017-08-30T16:11:05.128Z,15.30
2017-08-30T16:13:32.738Z,15.40
2017-08-30T16:16:00.416Z,15.40
2017-08-30T16:18:28.048Z,15.30
2017-08-30T16:20:55.680Z,15.40
2017-08-30T16:23:23.347Z,15.70
2017-08-30T16:25:50.955Z,15.20
2017-08-30T16:28:18.657Z,15.40
2017-08-30T16:30:46.624Z,15.60
2017-08-30T16:33:14.265Z,15.60
2017-08-30T16:35:41.878Z,15.80
2017-08-30T16:38:09.526Z,15.60
2017-08-30T16:40:37.288Z,15.70
2017-08-30T16:43:04.912Z,15.80
2017-08-30T16:45:32.570Z,16.10
2017-08-30T16:48:00.197Z,16.10
2017-08-30T16:50:27.812Z,16.90
2017-08-30T16:52:55.769Z,16.80
2017-08-30T16:55:23.378Z,16.60
2017-08-30T16:57:50.985Z,16.90
2017-08-30T17:00:18.637Z,16.80
2017-08-30T17:02:46.282Z,16.90
2017-08-30T17:05:13.883Z,17.20
2017-08-30T17:07:41.528Z,17.40
2017-08-30T17:10:09.152Z,17.40
2017-08-30T17:12:37.472Z,17.50
2017-08-30T17:15:05.308Z,17.50
2017-08-30T17:17:32.928Z,17.70
2017-08-30T17:20:00.734Z,17.40
2017-08-30T17:22:28.444Z,17.10
2017-08-30T17:24:57.055Z,17.20
2017-08-30T17:27:24.682Z,17.10
2017-08-30T17:29:52.503Z,17.30
2017-08-30T17:32:20.104Z,16.90
2017-08-30T17:34:48.434Z,17.40
2017-08-30T17:37:16.235Z,17.10
2017-08-30T17:39:43.835Z,17.10
2017-08-30T17:42:11.447Z,16.70
2017-08-30T17:44:39.739Z,16.90
2017-08-30T17:47:07.551Z,16.90
2017-08-30T17:49:35.171Z,17.10
2017-08-30T17:52:02.978Z,16.80
2017-08-30T17:54:30.698Z,16.90
2017-08-30T17:56:58.565Z,17.10
2017-08-30T17:59:26.718Z,17.10
2017-08-30T18:01:54.405Z,17.00
2017-08-30T18:04:22.116Z,16.80
2017-08-30T18:06:49.752Z,17.00
2017-08-30T18:09:17.645Z,16.90
2017-08-30T18:11:45.262Z,17.20
2017-08-30T18:14:12.927Z,17.00
2017-08-30T18:16:40.546Z,17.10
2017-08-30T18:19:08.169Z,17.10
2017-08-30T18:21:35.804Z,17.50
2017-08-30T18:24:03.424Z,17.20
2017-08-30T18:26:31.028Z,17.40
2017-08-30T18:28:58.672Z,18.10
2017-08-30T18:31:26.544Z,18.00
2017-08-30T18:33:54.162Z,17.90
2017-08-30T18:36:21.808Z,17.50
2017-08-30T18:38:49.424Z,19.20
2017-08-30T18:41:17.105Z,17.70
2017-08-30T18:43:44.767Z,17.80
2017-08-30T18:46:12.388Z,17.80
2017-08-30T18:48:40.017Z,17.90
2017-08-30T18:51:07.682Z,19.30
2017-08-30T18:53:35.309Z,18.30
2017-08-30T18:56:02.940Z,18.40
2017-08-30T18:58:30.591Z,19.10
2017-08-30T19:00:58.200Z,19.40
2017-08-30T19:03:25.836Z,18.40
2017-08-30T19:05:53.475Z,18.40
2017-08-30T19:08:21.104Z,18.30
2017-08-30T19:10:48.737Z,17.80
2017-08-30T19:13:16.560Z,17.70
2017-08-30T19:15:44.182Z,17.50
2017-08-30T19:18:11.809Z,17.50
2017-08-30T19:20:39.464Z,17.40
2017-08-30T19:23:07.122Z,17.20
2017-08-30T19:25:34.761Z,17.10
2017-08-30T19:28:02.427Z,17.70
2017-08-30T19:30:30.054Z,17.30
2017-08-30T19:32:57.697Z,17.50
2017-08-30T19:35:25.338Z,16.90
2017-08-30T19:37:52.967Z,16.90
2017-08-30T19:40:20.585Z,16.60
2017-08-30T19:42:48.217Z,16.70
2017-08-30T19:45:15.828Z,16.70
2017-08-30T19:47:43.445Z,16.60
2017-08-30T19:50:11.117Z,16.60
2017-08-30T19:52:38.763Z,16.60
2017-08-30T19:55:06.556Z,16.50
2017-08-30T19:57:34.201Z,16.50
2017-08-30T20:00:01.828Z,16.30
2017-08-30T20:02:29.531Z,16.40
2017-08-30T20:04:57.231Z,16.20
2017-08-30T20:07:24.853Z,16.40
2017-08-30T20:09:52.504Z,16.30
2017-08-30T20:12:20.152Z,16.30
2017-08-30T20:14:47.760Z,16.40
2017-08-30T20:17:15.393Z,16.40
2017-08-30T20:19:47.532Z,16.40
2017-08-30T20:22:15.521Z,16.30
2017-08-30T20:24:43.317Z,16.30
2017-08-30T20:27:10.964Z,18.10
2017-08-30T20:29:38.576Z,16.80
2017-08-30T20:32:06.245Z,16.50
2017-08-30T20:34:33.892Z,16.30
2017-08-30T20:37:01.517Z,16.40
2017-08-30T20:39:29.137Z,16.70
2017-08-30T20:41:56.895Z,16.20
2017-08-30T20:44:24.536Z,16.40
2017-08-30T20:46:52.140Z,16.30
2017-08-30T20:49:19.785Z,16.00
2017-08-30T20:51:47.400Z,15.90
2017-08-30T20:54:15.051Z,15.70
2017-08-30T20:56:42.699Z,15.70
2017-08-30T20:59:10.332Z,15.70
2017-08-30T21:01:37.970Z,15.80
2017-08-30T21:04:05.652Z,15.80
2017-08-30T21:06:33.304Z,15.70
2017-08-30T21:09:00.960Z,15.60
2017-08-30T21:11:28.681Z,15.40
2017-08-30T21:13:56.568Z,15.70
2017-08-30T21:16:24.271Z,15.40
2017-08-30T21:18:51.921Z,15.30
2017-08-30T21:21:19.532Z,15.50
2017-08-30T21:23:47.255Z,15.60
2017-08-30T21:26:14.904Z,15.60
2017-08-30T21:28:42.512Z,15.40
2017-08-30T21:31:10.132Z,15.90
2017-08-30T21:33:37.784Z,16.00
2017-08-30T21:36:05.402Z,15.90
2017-08-30T21:38:33.024Z,16.30
2017-08-30T21:41:00.663Z,15.80
2017-08-30T21:43:28.272Z,15.70
2017-08-30T21:45:55.912Z,15.70
2017-08-30T21:48:23.557Z,15.70
2017-08-30T21:50:51.173Z,15.80
2017-08-30T21:53:18.785Z,16.10
2017-08-30T21:55:46.595Z,18.50
2017-08-30T21:58:14.208Z,18.10
2017-08-30T22:00:41.823Z,17.20
2017-08-30T22:03:09.488Z,17.60
2017-08-30T22:05:37.263Z,16.80
2017-08-30T22:08:04.886Z,18.40
2017-08-30T22:10:32.554Z,18.30
2017-08-30T22:13:00.164Z,17.80
2017-08-30T22:15:27.768Z,18.00
2017-08-30T22:17:55.404Z,20.00
2017-08-30T22:20:23.019Z,22.10
2017-08-30T22:22:50.625Z,23.20
2017-08-30T22:25:18.281Z,24.70
2017-08-30T22:27:45.925Z,24.50
2017-08-30T22:30:13.548Z,23.70
2017-08-30T22:32:41.192Z,18.90
2017-08-30T22:35:08.818Z,18.40
2017-08-30T22:37:36.529Z,22.80
2017-08-30T22:40:04.179Z,22.40
2017-08-30T22:42:31.787Z,20.30
2017-08-30T22:44:59.405Z,24.10
2017-08-30T22:47:27.087Z,25.80
2017-08-30T22:49:54.712Z,25.40
2017-08-30T22:52:22.334Z,27.50
2017-08-30T22:54:49.985Z,24.70
2017-08-30T22:57:17.621Z,28.40
2017-08-30T22:59:45.235Z,22.40
2017-08-30T23:02:12.880Z,21.60
2017-08-30T23:04:40.497Z,27.70
2017-08-30T23:07:08.121Z,26.70
2017-08-30T23:09:35.779Z,28.20
2017-08-30T23:12:03.398Z,23.40
2017-08-30T23:14:31.098Z,22.20
2017-08-30T23:16:58.740Z,31.30
2017-08-30T23:19:26.571Z,31.10
2017-08-30T23:21:54.174Z,29.60
2017-08-30T23:24:21.827Z,30.40
2017-08-30T23:26:49.445Z,31.90
2017-08-30T23:29:17.229Z,26.80
2017-08-30T23:31:44.889Z,31.20
2017-08-30T23:34:12.503Z,31.90
2017-08-30T23:36:40.126Z,32.40
2017-08-30T23:39:07.783Z,35.60
2017-08-30T23:41:35.407Z,37.60
2017-08-30T23:44:03.021Z,35.80
2017-08-30T23:46:30.678Z,31.60
2017-08-30T23:48:58.344Z,33.60
2017-08-30T23:51:26.108Z,36.60
2017-08-30T23:53:53.765Z,36.80
2017-08-30T23:56:21.379Z,31.90
2017-08-30T23:58:48.984Z,25.40
